sensor_id;sensor_type;location;lat;lon;timestamp;P1;durP1;ratioP1;P2;durP2;ratioP2
33190;SDS011;19554;42.652;23.364;2024-03-08T00:00:18;18.55;;;11.15;;
33190;SDS011;19554;42.652;23.364;2024-03-08T00:02:45;16.65;;;10.90;;
33190;SDS011;19554;42.652;23.364;2024-03-08T00:05:11;17.63;;;11.23;;
33190;SDS011;19554;42.652;23.364;2024-03-08T00:07:37;17.02;;;10.80;;
33190;SDS011;19554;42.652;23.364;2024-03-08T00:10:04;15.77;;;10.13;;
33190;SDS011;19554;42.652;23.364;2024-03-08T00:12:30;17.73;;;10.98;;
33190;SDS011;19554;42.652;23.364;2024-03-08T00:14:56;15.50;;;9.77;;
33190;SDS011;19554;42.652;23.364;2024-03-08T00:17:21;16.20;;;10.15;;
33190;SDS011;19554;42.652;23.364;2024-03-08T00:19:50;14.73;;;9.40;;
33190;SDS011;19554;42.652;23.364;2024-03-08T00:22:16;16.05;;;10.02;;
33190;SDS011;19554;42.652;23.364;2024-03-08T00:24:42;15.35;;;9.55;;
33190;SDS011;19554;42.652;23.364;2024-03-08T00:27:08;14.98;;;9.25;;
33190;SDS011;19554;42.652;23.364;2024-03-08T00:29:34;13.13;;;8.77;;
33190;SDS011;19554;42.652;23.364;2024-03-08T00:32:00;13.80;;;8.82;;
33190;SDS011;19554;42.652;23.364;2024-03-08T00:34:26;13.82;;;8.88;;
33190;SDS011;19554;42.652;23.364;2024-03-08T00:36:51;14.02;;;9.25;;
33190;SDS011;19554;42.652;23.364;2024-03-08T00:39:17;13.77;;;8.30;;
33190;SDS011;19554;42.652;23.364;2024-03-08T00:41:45;14.52;;;8.77;;
33190;SDS011;19554;42.652;23.364;2024-03-08T00:44:10;13.27;;;8.35;;
33190;SDS011;19554;42.652;23.364;2024-03-08T00:46:36;16.88;;;9.40;;
33190;SDS011;19554;42.652;23.364;2024-03-08T00:49:01;16.45;;;9.88;;
33190;SDS011;19554;42.652;23.364;2024-03-08T00:51:27;18.05;;;9.73;;
33190;SDS011;19554;42.652;23.364;2024-03-08T00:53:52;16.38;;;10.05;;
33190;SDS011;19554;42.652;23.364;2024-03-08T00:56:18;15.38;;;9.63;;
33190;SDS011;19554;42.652;23.364;2024-03-08T00:58:43;14.65;;;10.00;;
33190;SDS011;19554;42.652;23.364;2024-03-08T01:01:09;15.30;;;9.25;;
33190;SDS011;19554;42.652;23.364;2024-03-08T01:03:35;17.38;;;9.30;;
33190;SDS011;19554;42.652;23.364;2024-03-08T01:06:01;15.35;;;8.88;;
33190;SDS011;19554;42.652;23.364;2024-03-08T01:08:27;11.88;;;7.85;;
33190;SDS011;19554;42.652;23.364;2024-03-08T01:10:53;14.35;;;8.70;;
33190;SDS011;19554;42.652;23.364;2024-03-08T01:13:18;13.95;;;8.18;;
33190;SDS011;19554;42.652;23.364;2024-03-08T01:15:44;10.60;;;7.15;;
33190;SDS011;19554;42.652;23.364;2024-03-08T01:18:10;9.95;;;6.80;;
33190;SDS011;19554;42.652;23.364;2024-03-08T01:20:36;9.93;;;6.22;;
33190;SDS011;19554;42.652;23.364;2024-03-08T01:23:02;7.85;;;5.47;;
33190;SDS011;19554;42.652;23.364;2024-03-08T01:25:28;9.13;;;5.55;;
33190;SDS011;19554;42.652;23.364;2024-03-08T01:27:54;8.85;;;5.50;;
33190;SDS011;19554;42.652;23.364;2024-03-08T01:30:19;7.45;;;4.85;;
33190;SDS011;19554;42.652;23.364;2024-03-08T01:32:45;5.88;;;4.20;;
33190;SDS011;19554;42.652;23.364;2024-03-08T01:35:10;7.68;;;4.07;;
33190;SDS011;19554;42.652;23.364;2024-03-08T01:37:36;7.85;;;3.85;;
33190;SDS011;19554;42.652;23.364;2024-03-08T01:40:02;7.85;;;4.07;;
33190;SDS011;19554;42.652;23.364;2024-03-08T01:42:28;5.93;;;3.83;;
33190;SDS011;19554;42.652;23.364;2024-03-08T01:44:54;5.28;;;4.22;;
33190;SDS011;19554;42.652;23.364;2024-03-08T01:47:19;7.13;;;4.20;;
33190;SDS011;19554;42.652;23.364;2024-03-08T01:49:48;11.25;;;4.35;;
33190;SDS011;19554;42.652;23.364;2024-03-08T01:52:15;6.22;;;4.00;;
33190;SDS011;19554;42.652;23.364;2024-03-08T01:54:43;6.40;;;4.68;;
33190;SDS011;19554;42.652;23.364;2024-03-08T01:57:10;4.68;;;3.55;;
33190;SDS011;19554;42.652;23.364;2024-03-08T01:59:36;6.95;;;4.22;;
33190;SDS011;19554;42.652;23.364;2024-03-08T02:02:02;5.50;;;3.88;;
33190;SDS011;19554;42.652;23.364;2024-03-08T02:04:28;5.28;;;4.05;;
33190;SDS011;19554;42.652;23.364;2024-03-08T02:06:56;5.82;;;3.75;;
33190;SDS011;19554;42.652;23.364;2024-03-08T02:09:23;5.38;;;3.95;;
33190;SDS011;19554;42.652;23.364;2024-03-08T02:11:50;4.68;;;3.55;;
33190;SDS011;19554;42.652;23.364;2024-03-08T02:14:16;4.35;;;3.05;;
33190;SDS011;19554;42.652;23.364;2024-03-08T02:16:45;5.57;;;3.72;;
33190;SDS011;19554;42.652;23.364;2024-03-08T02:19:11;6.72;;;3.33;;
33190;SDS011;19554;42.652;23.364;2024-03-08T02:21:36;4.10;;;3.00;;
33190;SDS011;19554;42.652;23.364;2024-03-08T02:24:03;4.40;;;3.30;;
33190;SDS011;19554;42.652;23.364;2024-03-08T02:26:29;4.57;;;3.33;;
33190;SDS011;19554;42.652;23.364;2024-03-08T02:28:54;3.92;;;3.22;;
33190;SDS011;19554;42.652;23.364;2024-03-08T02:31:20;8.98;;;3.33;;
33190;SDS011;19554;42.652;23.364;2024-03-08T02:33:46;4.80;;;3.38;;
33190;SDS011;19554;42.652;23.364;2024-03-08T02:36:12;4.38;;;3.38;;
33190;SDS011;19554;42.652;23.364;2024-03-08T02:38:38;4.10;;;3.13;;
33190;SDS011;19554;42.652;23.364;2024-03-08T02:41:06;6.35;;;4.03;;
33190;SDS011;19554;42.652;23.364;2024-03-08T02:43:33;4.25;;;3.45;;
33190;SDS011;19554;42.652;23.364;2024-03-08T02:45:59;4.07;;;3.25;;
33190;SDS011;19554;42.652;23.364;2024-03-08T02:48:25;4.70;;;3.38;;
33190;SDS011;19554;42.652;23.364;2024-03-08T02:50:50;3.53;;;2.80;;
33190;SDS011;19554;42.652;23.364;2024-03-08T02:53:16;3.60;;;2.83;;
33190;SDS011;19554;42.652;23.364;2024-03-08T02:55:43;5.10;;;3.13;;
33190;SDS011;19554;42.652;23.364;2024-03-08T02:58:09;2.97;;;2.40;;
33190;SDS011;19554;42.652;23.364;2024-03-08T03:00:35;2.58;;;2.15;;
33190;SDS011;19554;42.652;23.364;2024-03-08T03:03:04;3.05;;;2.75;;
33190;SDS011;19554;42.652;23.364;2024-03-08T03:05:31;3.78;;;2.90;;
33190;SDS011;19554;42.652;23.364;2024-03-08T03:07:57;3.40;;;2.70;;
33190;SDS011;19554;42.652;23.364;2024-03-08T03:10:23;4.15;;;2.63;;
33190;SDS011;19554;42.652;23.364;2024-03-08T03:12:49;4.35;;;2.95;;
33190;SDS011;19554;42.652;23.364;2024-03-08T03:15:14;5.00;;;2.75;;
33190;SDS011;19554;42.652;23.364;2024-03-08T03:17:45;3.50;;;2.20;;
33190;SDS011;19554;42.652;23.364;2024-03-08T03:22:39;3.00;;;1.90;;
33190;SDS011;19554;42.652;23.364;2024-03-08T03:25:12;2.13;;;1.55;;
33190;SDS011;19554;42.652;23.364;2024-03-08T03:27:37;3.17;;;1.70;;
33190;SDS011;19554;42.652;23.364;2024-03-08T03:30:04;2.28;;;1.88;;
33190;SDS011;19554;42.652;23.364;2024-03-08T03:32:48;2.30;;;1.90;;
33190;SDS011;19554;42.652;23.364;2024-03-08T03:35:16;2.78;;;2.05;;
33190;SDS011;19554;42.652;23.364;2024-03-08T03:37:45;2.10;;;1.70;;
33190;SDS011;19554;42.652;23.364;2024-03-08T03:42:52;1.48;;;1.38;;
33190;SDS011;19554;42.652;23.364;2024-03-08T03:45:17;2.40;;;1.38;;
33190;SDS011;19554;42.652;23.364;2024-03-08T03:47:45;2.05;;;1.58;;
33190;SDS011;19554;42.652;23.364;2024-03-08T03:50:10;2.25;;;1.60;;
33190;SDS011;19554;42.652;23.364;2024-03-08T03:52:36;1.90;;;1.55;;
33190;SDS011;19554;42.652;23.364;2024-03-08T03:55:02;2.00;;;1.30;;
33190;SDS011;19554;42.652;23.364;2024-03-08T03:57:29;1.90;;;1.60;;
33190;SDS011;19554;42.652;23.364;2024-03-08T03:59:55;2.65;;;2.10;;
33190;SDS011;19554;42.652;23.364;2024-03-08T04:02:20;3.38;;;2.67;;
33190;SDS011;19554;42.652;23.364;2024-03-08T04:04:47;1.77;;;1.50;;
33190;SDS011;19554;42.652;23.364;2024-03-08T04:07:12;1.63;;;1.50;;
33190;SDS011;19554;42.652;23.364;2024-03-08T04:09:38;3.78;;;2.35;;
33190;SDS011;19554;42.652;23.364;2024-03-08T04:12:04;3.58;;;2.30;;
33190;SDS011;19554;42.652;23.364;2024-03-08T04:14:29;5.70;;;3.67;;
33190;SDS011;19554;42.652;23.364;2024-03-08T04:16:55;4.43;;;2.75;;
33190;SDS011;19554;42.652;23.364;2024-03-08T04:19:21;3.03;;;1.60;;
33190;SDS011;19554;42.652;23.364;2024-03-08T04:21:47;2.38;;;1.77;;
33190;SDS011;19554;42.652;23.364;2024-03-08T04:24:12;3.58;;;2.55;;
33190;SDS011;19554;42.652;23.364;2024-03-08T04:26:38;3.70;;;2.10;;
33190;SDS011;19554;42.652;23.364;2024-03-08T04:29:03;4.97;;;2.97;;
33190;SDS011;19554;42.652;23.364;2024-03-08T04:31:29;9.43;;;6.00;;
33190;SDS011;19554;42.652;23.364;2024-03-08T04:33:56;4.18;;;2.78;;
33190;SDS011;19554;42.652;23.364;2024-03-08T04:36:22;5.68;;;4.45;;
33190;SDS011;19554;42.652;23.364;2024-03-08T04:38:48;4.85;;;3.13;;
33190;SDS011;19554;42.652;23.364;2024-03-08T04:41:13;2.92;;;2.03;;
33190;SDS011;19554;42.652;23.364;2024-03-08T04:43:39;2.22;;;1.50;;
33190;SDS011;19554;42.652;23.364;2024-03-08T04:46:05;1.38;;;1.23;;
33190;SDS011;19554;42.652;23.364;2024-03-08T04:48:30;4.20;;;1.80;;
33190;SDS011;19554;42.652;23.364;2024-03-08T04:50:56;1.80;;;1.70;;
33190;SDS011;19554;42.652;23.364;2024-03-08T04:53:22;2.42;;;1.90;;
33190;SDS011;19554;42.652;23.364;2024-03-08T04:55:48;2.97;;;1.92;;
33190;SDS011;19554;42.652;23.364;2024-03-08T04:58:14;7.97;;;5.47;;
33190;SDS011;19554;42.652;23.364;2024-03-08T05:00:40;5.75;;;4.20;;
33190;SDS011;19554;42.652;23.364;2024-03-08T05:03:05;2.90;;;2.60;;
33190;SDS011;19554;42.652;23.364;2024-03-08T05:05:31;3.85;;;2.15;;
33190;SDS011;19554;42.652;23.364;2024-03-08T05:07:58;3.53;;;2.70;;
33190;SDS011;19554;42.652;23.364;2024-03-08T05:10:23;2.53;;;2.22;;
33190;SDS011;19554;42.652;23.364;2024-03-08T05:12:49;2.70;;;2.28;;
33190;SDS011;19554;42.652;23.364;2024-03-08T05:15:14;2.75;;;2.25;;
33190;SDS011;19554;42.652;23.364;2024-03-08T05:17:40;2.50;;;2.30;;
33190;SDS011;19554;42.652;23.364;2024-03-08T05:20:07;2.63;;;2.13;;
33190;SDS011;19554;42.652;23.364;2024-03-08T05:22:37;2.30;;;2.10;;
33190;SDS011;19554;42.652;23.364;2024-03-08T05:25:03;2.10;;;1.90;;
33190;SDS011;19554;42.652;23.364;2024-03-08T05:27:28;3.30;;;2.10;;
33190;SDS011;19554;42.652;23.364;2024-03-08T05:29:54;6.15;;;3.67;;
33190;SDS011;19554;42.652;23.364;2024-03-08T05:32:19;2.95;;;2.50;;
33190;SDS011;19554;42.652;23.364;2024-03-08T05:34:45;3.75;;;2.45;;
33190;SDS011;19554;42.652;23.364;2024-03-08T05:37:10;3.03;;;2.55;;
33190;SDS011;19554;42.652;23.364;2024-03-08T05:39:36;13.23;;;8.77;;
33190;SDS011;19554;42.652;23.364;2024-03-08T05:42:01;25.60;;;16.23;;
33190;SDS011;19554;42.652;23.364;2024-03-08T05:44:27;20.70;;;10.95;;
33190;SDS011;19554;42.652;23.364;2024-03-08T05:46:53;12.80;;;7.38;;
33190;SDS011;19554;42.652;23.364;2024-03-08T05:49:19;5.43;;;4.53;;
33190;SDS011;19554;42.652;23.364;2024-03-08T05:51:46;7.47;;;4.72;;
33190;SDS011;19554;42.652;23.364;2024-03-08T05:54:12;7.47;;;5.05;;
33190;SDS011;19554;42.652;23.364;2024-03-08T05:56:38;10.40;;;6.80;;
33190;SDS011;19554;42.652;23.364;2024-03-08T05:59:07;13.10;;;7.90;;
33190;SDS011;19554;42.652;23.364;2024-03-08T06:01:32;14.20;;;8.00;;
33190;SDS011;19554;42.652;23.364;2024-03-08T06:04:01;16.30;;;10.65;;
33190;SDS011;19554;42.652;23.364;2024-03-08T06:06:27;20.50;;;11.73;;
33190;SDS011;19554;42.652;23.364;2024-03-08T06:08:53;10.68;;;7.32;;
33190;SDS011;19554;42.652;23.364;2024-03-08T06:11:19;15.43;;;7.65;;
33190;SDS011;19554;42.652;23.364;2024-03-08T06:13:47;11.75;;;7.72;;
33190;SDS011;19554;42.652;23.364;2024-03-08T06:16:14;20.95;;;10.50;;
33190;SDS011;19554;42.652;23.364;2024-03-08T06:18:40;15.43;;;8.95;;
33190;SDS011;19554;42.652;23.364;2024-03-08T06:21:06;12.65;;;8.07;;
33190;SDS011;19554;42.652;23.364;2024-03-08T06:23:34;13.90;;;9.02;;
33190;SDS011;19554;42.652;23.364;2024-03-08T06:26:06;13.43;;;8.32;;
33190;SDS011;19554;42.652;23.364;2024-03-08T06:28:34;13.30;;;8.25;;
33190;SDS011;19554;42.652;23.364;2024-03-08T06:31:00;12.20;;;7.97;;
33190;SDS011;19554;42.652;23.364;2024-03-08T06:33:26;16.95;;;10.20;;
33190;SDS011;19554;42.652;23.364;2024-03-08T06:35:53;17.58;;;9.85;;
33190;SDS011;19554;42.652;23.364;2024-03-08T06:38:22;15.60;;;9.48;;
33190;SDS011;19554;42.652;23.364;2024-03-08T06:40:48;12.25;;;8.30;;
33190;SDS011;19554;42.652;23.364;2024-03-08T06:43:14;12.20;;;8.07;;
33190;SDS011;19554;42.652;23.364;2024-03-08T06:45:44;12.15;;;7.85;;
33190;SDS011;19554;42.652;23.364;2024-03-08T06:48:17;13.00;;;8.10;;
33190;SDS011;19554;42.652;23.364;2024-03-08T06:50:46;14.18;;;8.65;;
33190;SDS011;19554;42.652;23.364;2024-03-08T06:53:12;12.93;;;8.80;;
33190;SDS011;19554;42.652;23.364;2024-03-08T06:55:39;13.82;;;9.23;;
33190;SDS011;19554;42.652;23.364;2024-03-08T06:58:05;13.20;;;8.38;;
33190;SDS011;19554;42.652;23.364;2024-03-08T07:00:32;11.82;;;8.68;;
33190;SDS011;19554;42.652;23.364;2024-03-08T07:02:57;10.05;;;7.22;;
33190;SDS011;19554;42.652;23.364;2024-03-08T07:05:26;10.48;;;7.38;;
33190;SDS011;19554;42.652;23.364;2024-03-08T07:07:52;13.60;;;9.40;;
33190;SDS011;19554;42.652;23.364;2024-03-08T07:10:19;11.32;;;7.22;;
33190;SDS011;19554;42.652;23.364;2024-03-08T07:12:44;12.40;;;8.55;;
33190;SDS011;19554;42.652;23.364;2024-03-08T07:15:11;11.20;;;7.30;;
33190;SDS011;19554;42.652;23.364;2024-03-08T07:17:41;9.60;;;6.93;;
33190;SDS011;19554;42.652;23.364;2024-03-08T07:20:09;9.70;;;6.75;;
33190;SDS011;19554;42.652;23.364;2024-03-08T07:22:37;10.52;;;7.20;;
33190;SDS011;19554;42.652;23.364;2024-03-08T07:25:06;7.75;;;5.57;;
33190;SDS011;19554;42.652;23.364;2024-03-08T07:27:33;8.35;;;6.05;;
33190;SDS011;19554;42.652;23.364;2024-03-08T07:30:02;7.60;;;5.25;;
33190;SDS011;19554;42.652;23.364;2024-03-08T07:32:28;8.95;;;5.38;;
33190;SDS011;19554;42.652;23.364;2024-03-08T07:34:55;8.52;;;5.38;;
33190;SDS011;19554;42.652;23.364;2024-03-08T07:37:21;7.97;;;5.30;;
33190;SDS011;19554;42.652;23.364;2024-03-08T07:39:47;8.88;;;5.10;;
33190;SDS011;19554;42.652;23.364;2024-03-08T07:42:12;6.88;;;4.93;;
33190;SDS011;19554;42.652;23.364;2024-03-08T07:44:38;6.43;;;4.38;;
33190;SDS011;19554;42.652;23.364;2024-03-08T07:47:04;6.50;;;5.00;;
33190;SDS011;19554;42.652;23.364;2024-03-08T07:49:29;7.47;;;5.47;;
33190;SDS011;19554;42.652;23.364;2024-03-08T07:51:56;9.25;;;6.05;;
33190;SDS011;19554;42.652;23.364;2024-03-08T07:54:22;7.72;;;5.72;;
33190;SDS011;19554;42.652;23.364;2024-03-08T07:56:48;9.40;;;6.30;;
33190;SDS011;19554;42.652;23.364;2024-03-08T07:59:13;11.77;;;7.35;;
33190;SDS011;19554;42.652;23.364;2024-03-08T08:01:39;11.43;;;6.78;;
33190;SDS011;19554;42.652;23.364;2024-03-08T08:04:05;9.65;;;6.78;;
33190;SDS011;19554;42.652;23.364;2024-03-08T08:06:31;9.93;;;6.57;;
33190;SDS011;19554;42.652;23.364;2024-03-08T08:09:00;12.23;;;7.70;;
33190;SDS011;19554;42.652;23.364;2024-03-08T08:11:28;10.82;;;7.50;;
33190;SDS011;19554;42.652;23.364;2024-03-08T08:13:54;13.40;;;9.18;;
33190;SDS011;19554;42.652;23.364;2024-03-08T08:16:20;10.55;;;7.32;;
33190;SDS011;19554;42.652;23.364;2024-03-08T08:18:47;15.43;;;8.30;;
33190;SDS011;19554;42.652;23.364;2024-03-08T08:21:13;9.55;;;5.85;;
33190;SDS011;19554;42.652;23.364;2024-03-08T08:23:39;11.00;;;6.20;;
33190;SDS011;19554;42.652;23.364;2024-03-08T08:26:04;10.18;;;6.35;;
33190;SDS011;19554;42.652;23.364;2024-03-08T08:28:32;8.75;;;6.00;;
33190;SDS011;19554;42.652;23.364;2024-03-08T08:30:58;10.00;;;6.75;;
33190;SDS011;19554;42.652;23.364;2024-03-08T08:33:24;8.13;;;5.90;;
33190;SDS011;19554;42.652;23.364;2024-03-08T08:35:50;11.20;;;7.03;;
33190;SDS011;19554;42.652;23.364;2024-03-08T08:38:19;9.93;;;6.05;;
33190;SDS011;19554;42.652;23.364;2024-03-08T08:40:45;8.60;;;5.70;;
33190;SDS011;19554;42.652;23.364;2024-03-08T08:43:12;8.35;;;5.72;;
33190;SDS011;19554;42.652;23.364;2024-03-08T08:45:39;10.93;;;6.20;;
33190;SDS011;19554;42.652;23.364;2024-03-08T08:48:05;9.10;;;6.25;;
33190;SDS011;19554;42.652;23.364;2024-03-08T08:50:31;9.30;;;5.65;;
33190;SDS011;19554;42.652;23.364;2024-03-08T08:52:57;8.32;;;5.38;;
33190;SDS011;19554;42.652;23.364;2024-03-08T08:55:23;9.63;;;7.35;;
33190;SDS011;19554;42.652;23.364;2024-03-08T08:57:52;11.48;;;7.20;;
33190;SDS011;19554;42.652;23.364;2024-03-08T09:00:19;11.63;;;6.45;;
33190;SDS011;19554;42.652;23.364;2024-03-08T09:02:45;11.88;;;6.93;;
33190;SDS011;19554;42.652;23.364;2024-03-08T09:05:12;9.02;;;5.90;;
33190;SDS011;19554;42.652;23.364;2024-03-08T09:07:39;11.75;;;7.15;;
33190;SDS011;19554;42.652;23.364;2024-03-08T09:10:05;8.80;;;5.13;;
33190;SDS011;19554;42.652;23.364;2024-03-08T09:12:31;9.35;;;5.50;;
33190;SDS011;19554;42.652;23.364;2024-03-08T09:14:57;9.63;;;6.22;;
33190;SDS011;19554;42.652;23.364;2024-03-08T09:17:24;6.72;;;4.45;;
33190;SDS011;19554;42.652;23.364;2024-03-08T09:19:50;6.25;;;4.32;;
33190;SDS011;19554;42.652;23.364;2024-03-08T09:22:16;4.93;;;3.75;;
33190;SDS011;19554;42.652;23.364;2024-03-08T09:24:41;5.57;;;4.05;;
33190;SDS011;19554;42.652;23.364;2024-03-08T09:27:08;5.47;;;4.18;;
33190;SDS011;19554;42.652;23.364;2024-03-08T09:29:34;6.88;;;4.53;;
33190;SDS011;19554;42.652;23.364;2024-03-08T09:32:00;11.35;;;4.68;;
33190;SDS011;19554;42.652;23.364;2024-03-08T09:34:26;4.32;;;3.55;;
33190;SDS011;19554;42.652;23.364;2024-03-08T09:36:51;7.70;;;3.50;;
33190;SDS011;19554;42.652;23.364;2024-03-08T09:39:17;5.50;;;3.20;;
33190;SDS011;19554;42.652;23.364;2024-03-08T09:41:45;10.15;;;3.30;;
33190;SDS011;19554;42.652;23.364;2024-03-08T09:44:17;4.88;;;3.42;;
33190;SDS011;19554;42.652;23.364;2024-03-08T09:46:42;3.88;;;2.97;;
33190;SDS011;19554;42.652;23.364;2024-03-08T09:49:11;5.53;;;3.45;;
33190;SDS011;19554;42.652;23.364;2024-03-08T09:51:36;6.85;;;3.30;;
33190;SDS011;19554;42.652;23.364;2024-03-08T09:54:05;8.35;;;3.92;;
33190;SDS011;19554;42.652;23.364;2024-03-08T09:56:34;4.35;;;3.53;;
33190;SDS011;19554;42.652;23.364;2024-03-08T09:59:01;5.33;;;3.20;;
33190;SDS011;19554;42.652;23.364;2024-03-08T10:01:45;4.97;;;3.60;;
33190;SDS011;19554;42.652;23.364;2024-03-08T10:04:11;5.28;;;3.15;;
33190;SDS011;19554;42.652;23.364;2024-03-08T10:06:38;5.93;;;3.47;;
33190;SDS011;19554;42.652;23.364;2024-03-08T10:09:05;4.95;;;3.42;;
33190;SDS011;19554;42.652;23.364;2024-03-08T10:11:32;4.00;;;3.38;;
33190;SDS011;19554;42.652;23.364;2024-03-08T10:13:58;4.20;;;2.88;;
33190;SDS011;19554;42.652;23.364;2024-03-08T10:16:26;4.47;;;2.92;;
33190;SDS011;19554;42.652;23.364;2024-03-08T10:18:52;5.45;;;3.42;;
33190;SDS011;19554;42.652;23.364;2024-03-08T10:21:18;3.63;;;2.60;;
33190;SDS011;19554;42.652;23.364;2024-03-08T10:23:44;3.67;;;2.90;;
33190;SDS011;19554;42.652;23.364;2024-03-08T10:26:12;3.45;;;2.50;;
33190;SDS011;19554;42.652;23.364;2024-03-08T10:28:46;3.88;;;2.33;;
33190;SDS011;19554;42.652;23.364;2024-03-08T10:31:16;4.28;;;3.25;;
33190;SDS011;19554;42.652;23.364;2024-03-08T10:33:42;5.10;;;3.13;;
33190;SDS011;19554;42.652;23.364;2024-03-08T10:36:09;3.92;;;3.03;;
33190;SDS011;19554;42.652;23.364;2024-03-08T10:38:40;6.00;;;2.80;;
33190;SDS011;19554;42.652;23.364;2024-03-08T10:51:23;2.60;;;2.22;;
33190;SDS011;19554;42.652;23.364;2024-03-08T10:53:50;3.30;;;2.63;;
33190;SDS011;19554;42.652;23.364;2024-03-08T10:56:17;5.65;;;2.75;;
33190;SDS011;19554;42.652;23.364;2024-03-08T10:58:43;3.58;;;2.33;;
33190;SDS011;19554;42.652;23.364;2024-03-08T11:01:09;4.07;;;2.20;;
33190;SDS011;19554;42.652;23.364;2024-03-08T11:06:05;3.35;;;2.60;;
33190;SDS011;19554;42.652;23.364;2024-03-08T11:08:33;5.13;;;2.65;;
33190;SDS011;19554;42.652;23.364;2024-03-08T11:10:59;4.22;;;2.50;;
33190;SDS011;19554;42.652;23.364;2024-03-08T11:13:39;3.17;;;2.47;;
33190;SDS011;19554;42.652;23.364;2024-03-08T11:16:07;3.35;;;2.10;;
33190;SDS011;19554;42.652;23.364;2024-03-08T11:18:35;2.67;;;2.20;;
33190;SDS011;19554;42.652;23.364;2024-03-08T11:21:04;3.13;;;2.70;;
33190;SDS011;19554;42.652;23.364;2024-03-08T11:23:37;2.80;;;2.40;;
33190;SDS011;19554;42.652;23.364;2024-03-08T11:26:16;6.13;;;2.95;;
33190;SDS011;19554;42.652;23.364;2024-03-08T11:28:46;2.35;;;2.15;;
33190;SDS011;19554;42.652;23.364;2024-03-08T11:33:39;2.97;;;2.10;;
33190;SDS011;19554;42.652;23.364;2024-03-08T11:36:42;4.78;;;2.08;;
33190;SDS011;19554;42.652;23.364;2024-03-08T11:39:02;2.55;;;2.13;;
33190;SDS011;19554;42.652;23.364;2024-03-08T11:41:34;4.15;;;1.95;;
33190;SDS011;19554;42.652;23.364;2024-03-08T11:44:03;3.67;;;2.40;;
33190;SDS011;19554;42.652;23.364;2024-03-08T11:46:33;7.03;;;2.45;;
33190;SDS011;19554;42.652;23.364;2024-03-08T11:48:59;2.15;;;1.75;;
33190;SDS011;19554;42.652;23.364;2024-03-08T11:51:26;2.65;;;1.70;;
33190;SDS011;19554;42.652;23.364;2024-03-08T11:53:52;2.97;;;2.00;;
33190;SDS011;19554;42.652;23.364;2024-03-08T11:56:18;4.38;;;2.10;;
33190;SDS011;19554;42.652;23.364;2024-03-08T11:58:55;2.40;;;2.10;;
33190;SDS011;19554;42.652;23.364;2024-03-08T12:01:24;3.95;;;2.40;;
33190;SDS011;19554;42.652;23.364;2024-03-08T12:03:53;7.85;;;2.17;;
33190;SDS011;19554;42.652;23.364;2024-03-08T12:06:19;2.37;;;1.90;;
33190;SDS011;19554;42.652;23.364;2024-03-08T12:08:46;3.58;;;2.92;;
33190;SDS011;19554;42.652;23.364;2024-03-08T12:11:14;2.00;;;1.80;;
33190;SDS011;19554;42.652;23.364;2024-03-08T12:13:41;4.30;;;2.35;;
33190;SDS011;19554;42.652;23.364;2024-03-08T12:16:06;2.85;;;2.13;;
33190;SDS011;19554;42.652;23.364;2024-03-08T12:18:33;2.40;;;2.13;;
33190;SDS011;19554;42.652;23.364;2024-03-08T12:23:33;2.65;;;1.80;;
33190;SDS011;19554;42.652;23.364;2024-03-08T12:28:40;4.32;;;2.13;;
33190;SDS011;19554;42.652;23.364;2024-03-08T12:31:08;2.80;;;2.00;;
33190;SDS011;19554;42.652;23.364;2024-03-08T12:33:37;2.05;;;1.80;;
33190;SDS011;19554;42.652;23.364;2024-03-08T12:36:14;3.38;;;2.28;;
33190;SDS011;19554;42.652;23.364;2024-03-08T12:38:40;5.63;;;2.05;;
33190;SDS011;19554;42.652;23.364;2024-03-08T12:41:09;4.78;;;2.00;;
33190;SDS011;19554;42.652;23.364;2024-03-08T12:43:34;3.40;;;1.83;;
33190;SDS011;19554;42.652;23.364;2024-03-08T12:46:00;3.20;;;2.53;;
33190;SDS011;19554;42.652;23.364;2024-03-08T12:48:25;3.30;;;2.10;;
33190;SDS011;19554;42.652;23.364;2024-03-08T12:50:51;3.63;;;2.22;;
33190;SDS011;19554;42.652;23.364;2024-03-08T12:53:18;3.03;;;2.00;;
33190;SDS011;19554;42.652;23.364;2024-03-08T12:55:44;3.50;;;1.95;;
33190;SDS011;19554;42.652;23.364;2024-03-08T12:58:09;4.57;;;2.42;;
33190;SDS011;19554;42.652;23.364;2024-03-08T13:00:36;2.30;;;2.00;;
33190;SDS011;19554;42.652;23.364;2024-03-08T13:03:02;3.88;;;2.15;;
33190;SDS011;19554;42.652;23.364;2024-03-08T13:05:28;2.97;;;2.45;;
33190;SDS011;19554;42.652;23.364;2024-03-08T13:07:54;2.47;;;2.17;;
33190;SDS011;19554;42.652;23.364;2024-03-08T13:10:20;2.97;;;2.38;;
33190;SDS011;19554;42.652;23.364;2024-03-08T13:12:46;4.38;;;2.10;;
33190;SDS011;19554;42.652;23.364;2024-03-08T13:15:11;4.95;;;2.40;;
33190;SDS011;19554;42.652;23.364;2024-03-08T13:17:45;2.72;;;1.83;;
33190;SDS011;19554;42.652;23.364;2024-03-08T13:20:11;3.65;;;1.98;;
33190;SDS011;19554;42.652;23.364;2024-03-08T13:22:43;4.30;;;2.17;;
33190;SDS011;19554;42.652;23.364;2024-03-08T13:25:09;3.40;;;2.00;;
33190;SDS011;19554;42.652;23.364;2024-03-08T13:27:41;4.50;;;2.22;;
33190;SDS011;19554;42.652;23.364;2024-03-08T13:30:08;3.22;;;2.13;;
33190;SDS011;19554;42.652;23.364;2024-03-08T13:32:38;2.28;;;1.98;;
33190;SDS011;19554;42.652;23.364;2024-03-08T13:35:08;3.42;;;2.20;;
33190;SDS011;19554;42.652;23.364;2024-03-08T13:37:41;2.63;;;2.20;;
33190;SDS011;19554;42.652;23.364;2024-03-08T13:40:07;2.70;;;2.05;;
33190;SDS011;19554;42.652;23.364;2024-03-08T13:42:41;2.00;;;1.83;;
33190;SDS011;19554;42.652;23.364;2024-03-08T13:45:11;3.58;;;2.30;;
33190;SDS011;19554;42.652;23.364;2024-03-08T13:47:36;2.60;;;1.95;;
33190;SDS011;19554;42.652;23.364;2024-03-08T13:50:02;5.38;;;2.20;;
33190;SDS011;19554;42.652;23.364;2024-03-08T13:52:29;2.17;;;1.88;;
33190;SDS011;19554;42.652;23.364;2024-03-08T13:54:54;7.97;;;2.03;;
33190;SDS011;19554;42.652;23.364;2024-03-08T13:57:20;3.05;;;1.95;;
33190;SDS011;19554;42.652;23.364;2024-03-08T13:59:47;4.35;;;2.30;;
33190;SDS011;19554;42.652;23.364;2024-03-08T14:02:16;2.22;;;1.95;;
33190;SDS011;19554;42.652;23.364;2024-03-08T14:04:42;5.20;;;2.42;;
33190;SDS011;19554;42.652;23.364;2024-03-08T14:07:08;3.30;;;2.35;;
33190;SDS011;19554;42.652;23.364;2024-03-08T14:09:34;4.50;;;2.20;;
33190;SDS011;19554;42.652;23.364;2024-03-08T14:12:07;2.63;;;2.13;;
33190;SDS011;19554;42.652;23.364;2024-03-08T14:14:33;3.90;;;2.20;;
33190;SDS011;19554;42.652;23.364;2024-03-08T14:17:02;3.67;;;2.40;;
33190;SDS011;19554;42.652;23.364;2024-03-08T14:19:29;2.95;;;2.40;;
33190;SDS011;19554;42.652;23.364;2024-03-08T14:21:59;3.80;;;2.70;;
33190;SDS011;19554;42.652;23.364;2024-03-08T14:24:25;3.60;;;2.78;;
33190;SDS011;19554;42.652;23.364;2024-03-08T14:26:50;3.28;;;2.50;;
33190;SDS011;19554;42.652;23.364;2024-03-08T14:29:16;3.63;;;2.65;;
33190;SDS011;19554;42.652;23.364;2024-03-08T14:31:43;6.35;;;3.10;;
33190;SDS011;19554;42.652;23.364;2024-03-08T14:34:08;4.20;;;2.50;;
33190;SDS011;19554;42.652;23.364;2024-03-08T14:36:34;4.93;;;3.35;;
33190;SDS011;19554;42.652;23.364;2024-03-08T14:39:00;6.93;;;3.10;;
33190;SDS011;19554;42.652;23.364;2024-03-08T14:41:25;3.75;;;2.92;;
33190;SDS011;19554;42.652;23.364;2024-03-08T14:43:51;4.50;;;3.28;;
33190;SDS011;19554;42.652;23.364;2024-03-08T14:46:18;4.72;;;3.10;;
33190;SDS011;19554;42.652;23.364;2024-03-08T14:48:49;4.68;;;3.35;;
33190;SDS011;19554;42.652;23.364;2024-03-08T14:51:16;9.30;;;3.17;;
33190;SDS011;19554;42.652;23.364;2024-03-08T14:53:45;7.20;;;3.75;;